Nea Liosia, Greece

5:40 PM EET on December 06, 2016 (GMT +0200)
IATTICAI2 | | Change Station

Elev 410 ft 38.04 °N, 23.70 °E | Updated 2 seconds ago

Partly Cloudy
Partly Cloudy
52.5 °F
Feels Like 52.5 °F
N
0.0
Wind Variable Wind from North
Gusts 0.0 mph

Today
High -- | Low -- °F
--% Chance of Precip.
Yesterday
High -- | Low -- °F
Precip. -- in
Pressure 30.30 in
Visibility 6.2 miles
Clouds Few 3000 ft
Dew Point 37 °F
Humidity 55%
Rainfall 0.00 in
Snow Depth Not available.
7:27 AM 5:05 PM
Waxing Crescent, 42% visible
METAR LGTG 061450Z 00000KT 9999 FEW030 10/04 Q1026 RMK SCT080 SCT180 BLU
Pressure 30.30 in
Visibility 6.2 miles
Clouds Few 3000 ft
Dew Point 37 °F
Humidity 55%
Rainfall 0.00 in
Snow Depth Not available.
7:27 AM 5:05 PM
Waxing Crescent, 42% visible
METAR LGTG 061450Z 00000KT 9999 FEW030 10/04 Q1026 RMK SCT080 SCT180 BLU

10-Day Weather Forecast

×

Almanac

Astronomy

Dec. 06, 2016 Rise Set
Actual Time
Civil Twilight
Nautical Twilight
Astronomical Twilight
Moon
Length of Visible Light
Length of Day
Tomorrow will be .
, % of the Moon is Illuminated

Today's Extremes

Country Highs Country Lows

Community

WunderPhotos

Upload Photos

1,955,957 photos uploaded!

WunderBlog® & News

Nearby

Air Quality

  Air Quality AQ Index Pollutant
Not available.

Snow Depth

Station Depth Elevation

Earthquake Activity

City Distance Mag. Time & Date
Minimum magnitude displayed is 2.5.

Coastal Water Temperatures

Place Temperature

Stations

Nearby Weather Stations

Station Location Temp. Windchill Dew Point Humidity Wind Precip. Elev Updated Type